Saguache, CO

13:50 MDT le 29 août 2016 (GMT -0600)
Saguache | | Change Station

Alt. 7825 ft 38.10 °N, 106.17 °W | Updated 14 minutes ago

Thunderstorm
Orage
70 ° F
Paraît 70 ° F
N
12
Vent Variable Vent de SSE

Aujourd'hui
Haut(e) -- | Bas -- ° F
--% Risque de précip.
Hier
Haut(e) -- | Bas -- ° F
Precip. -- pouce
Pression 30.42 pouce
Visibilité 10.0 Miles terrestres
Nuages Ciel dégagé
Point de rosée 45 ° F
Humidité 40%
Précipitations 0.15 pouce
Profondeur de la couche neigeuse Non disponible.
6:32 AM 7:37 PM
Lune descendante, 7% visible
METAR K04V 291936Z AUTO 16010KT 10SM TS CLR 21/07 A3042 RMK AO2 LTG DSNT ALQS
Pression 30.42 pouce
Visibilité 10.0 Miles terrestres
Nuages Ciel dégagé
Point de rosée 45 ° F
Humidité 40%
Précipitations 0.15 pouce
Profondeur de la couche neigeuse Non disponible.
6:32 AM 7:37 PM
Lune descendante, 7% visible
METAR K04V 291936Z AUTO 16010KT 10SM TS CLR 21/07 A3042 RMK AO2 LTG DSNT ALQS

10-Day Weather Forecast

Almanac

Astronomie

Aug. 29, 2016 Lever Coucher
Temps réel
Crépuscule civil
Crépuscule nautique
Crépuscule astronomique
Lune
Durée de lumière visible
Longueur du jour
Tomorrow will be .
, % of the Moon is Illuminated

Extrêmes aujourd'hui

State Highs State Lows

Community

WunderPhotos

Upload Photos

1,935,642 Photos téléchargées !

WunderBlog® & News

Nearby

Qualité de l'air

  Qualité de l'air Indice de la qualité de l'air Polluant
Not available.

Épaisseur de neige

Station Depth Altitude

Activité sismique

Ville Distance Mag. Time & Date
Minimum magnitude displayed is 2.5.

Températures des eaux côtières

Lieu Température

Stations

Stations météo à proximité

Emplacement de la station Température Refroidissement éolien Point de rosée Humidité Vent Precip. Alt. Mise à jour Type
                   

Watches & Warnings

There are currently no watches in effect.